Time;durP1;ratioP1;P1;durP2;ratioP2;P2;SDS_P1;SDS_P2;PMS_P1;PMS_P2;Temp;Humidity;BMP_temperature;BMP_pressure;BME280_temperature;BME280_humidity;BME280_pressure;Samples;Min_cycle;Max_cycle;Signal;HPM_P1;HPM_P2
2022/11/03 00:01:46;;;;;;;33.42;21.57;;;;;;;8.36;65.35;100348.96;1810860;77;21033;-73
2022/11/03 00:04:14;;;;;;;39.65;21.55;;;;;;;8.36;65.43;100348.48;1803523;77;21785;-73
2022/11/03 00:06:43;;;;;;;30.95;21.15;;;;;;;8.36;65.53;100348.96;1773909;79;21472;-73
2022/11/03 00:09:12;;;;;;;34.25;20.85;;;;;;;8.37;65.62;100344.06;1819001;77;20981;-72
2022/11/03 00:11:40;;;;;;;32.38;20.20;;;;;;;8.36;65.72;100345.86;1796327;78;21062;-72
2022/11/03 00:14:08;;;;;;;34.88;22.07;;;;;;;8.37;65.82;100346.22;1805209;77;20957;-72
2022/11/03 00:16:37;;;;;;;34.70;22.40;;;;;;;8.36;65.84;100352.44;1820954;77;21907;-74
2022/11/03 00:19:05;;;;;;;33.02;22.22;;;;;;;8.38;65.88;100347.90;1821168;78;20881;-73
2022/11/03 00:21:32;;;;;;;38.67;22.40;;;;;;;8.38;65.84;100334.73;1822896;77;20988;-74
2022/11/03 00:24:01;;;;;;;34.98;21.87;;;;;;;8.39;65.90;100333.78;1814750;77;21656;-74
2022/11/03 00:26:31;;;;;;;35.40;21.87;;;;;;;8.41;66.06;100338.49;1820877;78;21056;-73
2022/11/03 00:29:00;;;;;;;29.65;21.25;;;;;;;8.41;66.06;100337.17;1821453;78;22460;-73
2022/11/03 00:31:30;;;;;;;35.55;22.22;;;;;;;8.43;66.10;100337.06;1794156;77;21045;-74
2022/11/03 00:33:58;;;;;;;33.60;20.52;;;;;;;8.44;66.08;100334.79;1818478;78;20990;-74
2022/11/03 00:36:27;;;;;;;33.73;21.17;;;;;;;8.45;66.07;100339.10;1821195;78;21013;-73
2022/11/03 00:38:54;;;;;;;32.60;21.85;;;;;;;8.46;66.09;100338.98;1822476;78;20977;-74
2022/11/03 00:41:21;;;;;;;35.98;21.75;;;;;;;8.47;66.13;100338.03;1813656;78;21974;-73
2022/11/03 00:43:48;;;;;;;37.65;21.77;;;;;;;8.47;66.21;100337.20;1809623;78;20993;-74
2022/11/03 00:46:16;;;;;;;30.37;19.75;;;;;;;8.49;66.27;100344.05;1798851;78;21101;-74
2022/11/03 00:48:43;;;;;;;31.25;21.55;;;;;;;8.50;66.26;100340.95;1786414;79;20985;-73
2022/11/03 00:51:25;;;;;;;36.55;21.65;;;;;;;8.50;66.19;100339.16;1804880;78;21025;-74
2022/11/03 00:53:58;;;;;;;32.95;21.65;;;;;;;8.52;66.13;100337.25;1786460;78;22215;-73
2022/11/03 00:56:29;;;;;;;;;;;;;;;8.55;66.14;100336.18;1801966;79;21041;-74
2022/11/03 00:58:58;;;;;;;35.10;21.20;;;;;;;8.57;66.15;100332.48;1803665;77;20223;-73
2022/11/03 01:01:39;;;;;;;37.15;21.35;;;;;;;8.56;66.16;100328.16;1802289;77;21037;-74
2022/11/03 01:06:54;;;;;;;33.23;20.90;;;;;;;8.60;66.18;100322.23;1788407;78;21477;-74
2022/11/03 01:09:39;;;;;;;30.32;20.80;;;;;;;8.62;66.29;100324.74;1787797;78;21262;-73
2022/11/03 01:12:10;;;;;;;33.42;20.52;;;;;;;8.62;66.45;100324.74;1765195;79;20917;-73
2022/11/03 01:14:42;;;;;;;29.70;20.17;;;;;;;8.59;66.70;100324.50;1739830;81;21018;-74
2022/11/03 01:17:13;;;;;;;27.65;20.25;;;;;;;8.57;66.86;100327.21;1720678;80;21396;-73
2022/11/03 01:19:40;;;;;;;30.55;20.60;;;;;;;8.55;67.11;100328.28;1717296;81;22040;-73
2022/11/03 01:22:06;;;;;;;30.92;19.80;;;;;;;8.50;67.37;100331.25;1795205;78;21049;-73
2022/11/03 01:24:34;;;;;;;33.18;20.65;;;;;;;8.47;67.57;100332.77;1789550;78;20984;-73
2022/11/03 01:27:00;;;;;;;32.53;21.73;;;;;;;8.45;67.77;100330.73;1789407;78;21016;-73
2022/11/03 01:29:27;;;;;;;30.52;21.45;;;;;;;8.44;67.88;100330.37;1797070;78;20968;-73
2022/11/03 01:31:54;;;;;;;30.52;20.17;;;;;;;8.42;68.01;100334.91;1793880;78;21930;-73
2022/11/03 01:34:21;;;;;;;31.07;20.08;;;;;;;8.43;68.09;100335.75;1799027;78;21091;-73
2022/11/03 01:36:49;;;;;;;32.08;20.77;;;;;;;8.41;68.13;100336.34;1788391;77;21645;-74
2022/11/03 01:39:19;;;;;;;34.35;21.12;;;;;;;8.40;68.17;100331.55;1793549;78;21154;-73
2022/11/03 01:41:49;;;;;;;30.50;21.35;;;;;;;8.39;68.19;100335.58;1788942;78;20999;-73
2022/11/03 01:44:25;;;;;;;32.15;21.48;;;;;;;8.40;68.19;100332.86;1789446;77;21904;-74
2022/11/03 01:47:04;;;;;;;30.65;21.10;;;;;;;8.40;68.16;100338.13;1777949;77;22389;-74
2022/11/03 01:49:46;;;;;;;29.57;20.68;;;;;;;8.41;68.15;100339.80;1773175;79;20990;-74
2022/11/03 01:52:32;;;;;;;32.78;21.82;;;;;;;8.41;68.19;100342.44;1712779;81;21056;-73
2022/11/03 01:55:09;;;;;;;32.03;20.68;;;;;;;8.41;68.12;100346.39;1755219;79;21580;-72
2022/11/03 01:57:41;;;;;;;30.08;21.80;;;;;;;8.42;68.08;100349.86;1741690;79;21785;-72
2022/11/03 02:00:09;;;;;;;35.48;21.40;;;;;;;8.41;68.05;100352.97;1729248;80;21008;-72
2022/11/03 02:02:43;;;;;;;33.70;21.55;;;;;;;8.41;68.00;100356.91;1784691;77;21038;-72
2022/11/03 02:05:10;;;;;;;30.95;21.82;;;;;;;8.41;68.02;100357.39;1785900;78;21060;-72
2022/11/03 02:07:59;;;;;;;32.08;21.85;;;;;;;8.40;68.07;100356.55;1786488;78;21033;-73
2022/11/03 02:10:26;;;;;;;31.05;21.42;;;;;;;8.41;68.09;100359.55;1790370;77;21827;-72
2022/11/03 02:12:54;;;;;;;34.25;21.62;;;;;;;8.43;68.12;100361.59;1785767;77;20971;-72
2022/11/03 02:15:21;;;;;;;29.95;21.00;;;;;;;8.43;68.13;100360.75;1770287;78;21017;-72
2022/11/03 02:17:49;;;;;;;32.83;20.55;;;;;;;8.42;68.12;100350.70;1787418;77;20987;-72
2022/11/03 02:20:23;;;;;;;32.83;21.93;;;;;;;8.44;68.12;100344.00;1798638;78;21060;-72
2022/11/03 02:23:05;;;;;;;;;;;;;;;8.46;68.10;100343.41;1777288;77;21801;-72
2022/11/03 02:25:47;;;;;;;33.42;20.70;;;;;;;8.49;68.00;100347.13;1785119;77;20635;-73
2022/11/03 02:28:21;;;;;;;31.37;20.75;;;;;;;8.49;68.00;100339.23;1780081;78;20938;-72
2022/11/03 02:31:16;;;;;;;30.68;20.52;;;;;;;8.49;67.96;100338.79;1778218;78;20974;-72
2022/11/03 02:33:57;;;;;;;35.95;21.25;;;;;;;8.50;67.95;100343.11;1790330;77;21082;-73
2022/11/03 02:36:45;;;;;;;32.70;21.70;;;;;;;8.52;67.90;100339.04;1786212;78;21736;-73
2022/11/03 02:39:27;;;;;;;32.03;20.55;;;;;;;8.53;67.91;100338.09;1796999;77;21017;-72
2022/11/03 02:41:55;;;;;;;30.43;21.23;;;;;;;8.52;67.94;100333.30;1768364;77;20987;-73
2022/11/03 02:44:24;;;;;;;33.83;21.12;;;;;;;8.52;68.00;100339.88;1802678;77;20985;-73
2022/11/03 02:46:58;;;;;;;33.38;22.87;;;;;;;8.53;68.04;100348.61;1758969;78;21533;-73
2022/11/03 02:49:24;;;;;;;34.15;22.90;;;;;;;8.50;68.12;100347.53;1805121;77;22509;-73
2022/11/03 02:52:01;;;;;;;36.77;24.45;;;;;;;8.45;68.24;100344.37;1802988;77;20984;-73
2022/11/03 02:54:33;;;;;;;34.60;23.40;;;;;;;8.39;68.40;100343.47;1816848;77;21427;-73
2022/11/03 02:57:04;;;;;;;40.70;24.70;;;;;;;8.35;68.59;100348.13;1806030;77;21511;-73
2022/11/03 02:59:39;;;;;;;35.52;24.35;;;;;;;8.32;68.75;100347.00;1802970;77;20977;-73
2022/11/03 03:02:09;;;;;;;37.25;24.27;;;;;;;8.31;68.85;100350.59;1795791;77;21963;-73
2022/11/03 03:04:47;;;;;;;36.38;23.98;;;;;;;8.27;68.91;100358.31;1775958;79;21067;-73
2022/11/03 03:07:24;;;;;;;34.88;24.47;;;;;;;8.23;69.07;100352.44;1765897;79;21005;-73
2022/11/03 03:10:13;;;;;;;39.10;25.35;;;;;;;8.21;69.19;100352.18;1803510;77;21468;-73
2022/11/03 03:12:44;;;;;;;38.80;25.72;;;;;;;8.20;69.28;100357.05;1780317;77;21032;-73
2022/11/03 03:15:11;;;;;;;41.70;26.93;;;;;;;8.20;69.35;100364.94;1800954;77;22694;-73
2022/11/03 03:18:00;;;;;;;39.65;26.87;;;;;;;8.19;69.37;100355.37;1798366;77;20995;-73
2022/11/03 03:20:35;;;;;;;44.35;27.22;;;;;;;8.20;69.40;100354.42;1798898;77;22082;-73
2022/11/03 03:23:06;;;;;;;40.28;26.50;;;;;;;8.19;69.44;100356.69;1800925;77;21028;-72
2022/11/03 03:25:38;;;;;;;39.35;26.68;;;;;;;8.18;69.40;100360.27;1804677;77;21008;-73
2022/11/03 03:28:12;;;;;;;40.15;27.25;;;;;;;8.18;69.40;100362.89;1798939;77;21854;-73
2022/11/03 03:30:39;;;;;;;40.92;26.75;;;;;;;8.17;69.35;100364.69;1801457;77;21328;-73
2022/11/03 03:33:06;;;;;;;39.73;26.40;;;;;;;8.16;69.32;100364.80;1799773;77;21004;-73
2022/11/03 03:35:33;;;;;;;36.80;26.15;;;;;;;8.12;69.33;100362.87;1801022;77;21032;-73
2022/11/03 03:38:04;;;;;;;36.05;25.45;;;;;;;8.09;69.36;100360.91;1755154;79;21423;-73
2022/11/03 03:40:34;;;;;;;38.25;24.55;;;;;;;8.06;69.38;100365.91;1808890;77;22147;-73
2022/11/03 03:43:02;;;;;;;36.35;24.20;;;;;;;8.06;69.39;100365.07;1788919;78;20998;-71
2022/11/03 03:45:29;;;;;;;38.13;23.98;;;;;;;8.03;69.39;100366.97;1770764;79;21644;-73
2022/11/03 03:47:56;;;;;;;36.88;24.00;;;;;;;7.98;69.41;100365.59;1787266;78;20984;-73
2022/11/03 03:50:24;;;;;;;33.05;22.60;;;;;;;7.96;69.49;100372.28;1790561;77;21042;-72
2022/11/03 03:52:57;;;;;;;34.80;24.10;;;;;;;7.93;69.53;100373.81;1790720;78;21955;-73
2022/11/03 03:55:25;;;;;;;32.90;23.22;;;;;;;7.92;69.60;100375.23;1760096;79;21006;-73
2022/11/03 03:57:52;;;;;;;33.35;22.22;;;;;;;7.91;69.68;100379.66;1767233;78;21471;-73
2022/11/03 04:00:19;;;;;;;32.08;21.30;;;;;;;7.91;69.76;100382.73;1789120;77;21860;-73
2022/11/03 04:02:45;;;;;;;29.95;20.88;;;;;;;7.91;69.84;100380.97;1786339;78;21004;-73
2022/11/03 04:05:12;;;;;;;30.55;20.88;;;;;;;7.92;69.88;100381.34;1780529;78;21910;-72
2022/11/03 04:07:46;;;;;;;30.57;20.62;;;;;;;7.92;69.89;100376.55;1785384;78;21039;-73
2022/11/03 04:10:19;;;;;;;30.90;20.12;;;;;;;7.91;69.96;100377.03;1789740;77;21189;-73
2022/11/03 04:23:50;;;;;;;32.23;20.43;;;;;;;7.97;70.09;100358.65;1792880;78;21041;-73
2022/11/03 04:26:21;;;;;;;32.30;21.33;;;;;;;7.97;70.11;100354.70;1747957;79;21032;-73
2022/11/03 04:28:49;;;;;;;31.27;20.97;;;;;;;7.98;70.14;100352.44;1720851;80;21044;-73
2022/11/03 04:31:17;;;;;;;30.45;21.50;;;;;;;7.98;70.17;100353.28;1725633;81;21940;-72
2022/11/03 04:33:45;;;;;;;34.75;24.87;;;;;;;7.96;70.23;100362.23;1731358;81;21075;-73
2022/11/03 04:36:22;;;;;;;38.05;27.25;;;;;;;7.93;70.26;100363.30;1745387;81;21006;-73
2022/11/03 04:38:50;;;;;;;39.15;27.37;;;;;;;7.89;70.32;100356.55;1731806;81;21044;-73
2022/11/03 04:41:24;;;;;;;40.03;27.65;;;;;;;7.88;70.42;100357.49;1705615;82;21001;-73
2022/11/03 04:43:51;;;;;;;39.98;26.62;;;;;;;7.86;70.51;100358.08;1723111;81;21920;-73
2022/11/03 04:46:28;;;;;;;39.88;27.10;;;;;;;7.87;70.55;100357.12;1729591;82;21060;-73
2022/11/03 04:49:00;;;;;;;40.00;25.50;;;;;;;7.87;70.66;100353.66;1750714;81;21062;-73
2022/11/03 04:51:30;;;;;;;33.80;22.93;;;;;;;7.87;70.75;100350.55;1760448;81;20955;-73
2022/11/03 04:54:04;;;;;;;34.45;22.55;;;;;;;7.87;70.86;100351.03;1744371;81;21044;-73
2022/11/03 04:56:30;;;;;;;30.30;19.80;;;;;;;7.84;70.93;100353.41;1712020;82;21818;-73
2022/11/03 04:58:57;;;;;;;33.38;20.82;;;;;;;7.85;71.04;100359.02;1746039;80;20860;-72
2022/11/03 05:01:23;;;;;;;27.87;20.25;;;;;;;7.84;71.13;100356.50;1726806;82;21077;-73
2022/11/03 05:03:53;;;;;;;28.57;19.62;;;;;;;7.83;71.21;100364.88;1738592;81;21045;-73
2022/11/03 05:06:23;;;;;;;29.02;19.90;;;;;;;7.82;71.26;100364.50;1704008;82;21481;-73
2022/11/03 05:08:58;;;;;;;30.20;19.27;;;;;;;7.82;71.32;100363.19;1733692;81;22637;-72
2022/11/03 05:11:37;;;;;;;28.05;18.62;;;;;;;7.84;71.40;100365.70;1749728;81;21107;-73
2022/11/03 05:14:08;;;;;;;29.57;19.12;;;;;;;7.84;71.47;100371.81;1729175;81;20991;-73
2022/11/03 05:16:34;;;;;;;28.70;19.23;;;;;;;7.86;71.54;100362.02;1740962;81;21017;-72
2022/11/03 05:19:01;;;;;;;27.77;19.37;;;;;;;7.89;71.61;100353.07;1744833;81;21020;-73
2022/11/03 05:21:28;;;;;;;27.22;19.15;;;;;;;7.91;71.62;100352.48;1726482;82;22835;-73
2022/11/03 05:24:04;;;;;;;25.43;18.23;;;;;;;7.93;71.65;100354.09;1735489;81;21044;-73
2022/11/03 05:26:34;;;;;;;26.42;18.87;;;;;;;7.96;71.66;100347.30;1703466;82;21544;-73
2022/11/03 05:29:07;;;;;;;27.40;19.77;;;;;;;7.98;71.67;100343.23;1715877;82;21126;-73
2022/11/03 05:31:34;;;;;;;27.75;19.17;;;;;;;7.99;71.78;100340.50;1750117;81;21087;-73
2022/11/03 05:34:20;;;;;;;26.27;19.00;;;;;;;8.01;71.80;100357.52;1742230;81;21953;-73
2022/11/03 05:36:46;;;;;;;30.90;19.95;;;;;;;8.02;71.81;100367.08;1721158;82;21002;-73
2022/11/03 05:39:22;;;;;;;27.20;18.90;;;;;;;8.03;71.85;100372.23;1747069;81;21083;-74
2022/11/03 05:41:49;;;;;;;27.67;19.32;;;;;;;8.05;71.86;100380.02;1716895;81;22934;-73
2022/11/03 05:44:35;;;;;;;28.38;19.92;;;;;;;8.04;71.86;100379.65;1716536;81;21057;-73
2022/11/03 05:47:25;;;;;;;29.82;19.87;;;;;;;8.03;71.90;100384.55;1725870;81;21970;-73
2022/11/03 05:50:15;;;;;;;35.50;21.27;;;;;;;8.01;71.97;100383.34;1742214;81;21040;-73
2022/11/03 05:52:44;;;;;;;28.07;20.32;;;;;;;7.94;72.04;100391.27;1725521;81;20956;-73
2022/11/03 05:55:27;;;;;;;35.20;20.80;;;;;;;7.89;72.19;100392.52;1752533;81;21041;-73
2022/11/03 05:57:56;;;;;;;28.83;19.40;;;;;;;7.84;72.28;100403.36;1768809;80;20971;-73
2022/11/03 06:00:32;;;;;;;29.40;21.07;;;;;;;7.77;72.54;100403.40;1746093;81;21832;-72
2022/11/03 06:02:59;;;;;;;34.45;21.90;;;;;;;7.73;72.68;100401.94;1750433;79;21036;-72
2022/11/03 06:05:27;;;;;;;30.92;20.80;;;;;;;7.73;72.91;100395.36;1745931;79;20964;-73
2022/11/03 06:07:58;;;;;;;37.53;21.70;;;;;;;7.77;73.15;100390.25;1745752;79;20993;-73
2022/11/03 06:10:35;;;;;;;30.12;20.02;;;;;;;7.82;73.30;100394.74;1744126;79;20976;-73
2022/11/03 06:13:18;;;;;;;32.50;20.77;;;;;;;7.86;73.38;100388.31;1759989;79;23243;-74
2022/11/03 06:15:47;;;;;;;30.60;21.27;;;;;;;7.91;73.47;100386.67;1744749;79;21039;-72
2022/11/03 06:18:19;;;;;;;31.82;20.72;;;;;;;7.92;73.50;100385.28;1725293;81;21102;-73
2022/11/03 06:20:53;;;;;;;28.85;19.77;;;;;;;7.95;73.55;100383.75;1719771;81;21419;-73
2022/11/03 06:23:20;;;;;;;30.08;18.82;;;;;;;7.99;73.55;100378.63;1726152;81;21053;-73
2022/11/03 06:25:47;;;;;;;29.95;19.82;;;;;;;8.03;73.59;100369.60;1728366;81;21807;-74
2022/11/03 06:28:19;;;;;;;26.05;19.20;;;;;;;8.08;73.63;100365.80;1730808;81;21067;-73
2022/11/03 06:30:47;;;;;;;28.12;19.85;;;;;;;8.12;73.67;100368.12;1731697;81;21048;-73
2022/11/03 06:33:27;;;;;;;27.05;18.87;;;;;;;8.17;73.71;100363.84;1731780;81;20985;-73
2022/11/03 06:35:57;;;;;;;30.97;19.95;;;;;;;8.21;73.78;100366.66;1765191;79;21107;-74
2022/11/03 06:38:26;;;;;;;33.23;20.15;;;;;;;8.26;73.80;100372.42;1730594;81;22945;-75
2022/11/03 06:40:52;;;;;;;30.95;20.20;;;;;;;8.31;73.80;100371.64;1760433;79;20984;-75
2022/11/03 06:43:27;;;;;;;29.72;20.35;;;;;;;8.32;73.79;100362.31;1752202;79;21052;-74
2022/11/03 06:45:57;;;;;;;26.95;19.15;;;;;;;8.36;73.77;100366.91;1763613;79;22303;-73
2022/11/03 06:48:27;;;;;;;28.87;18.32;;;;;;;8.38;73.84;100374.22;1722361;81;20993;-74
2022/11/03 06:50:55;;;;;;;30.27;18.50;;;;;;;8.40;73.77;100376.30;1731627;80;21872;-72
2022/11/03 06:53:28;;;;;;;29.32;18.32;;;;;;;8.40;73.79;100377.61;1766980;79;21006;-75
2022/11/03 06:55:55;;;;;;;;;;;;;;;8.42;73.82;100369.13;1730035;81;21056;-74
2022/11/03 06:58:35;;;;;;;26.80;19.02;;;;;;;8.46;73.91;100363.99;1720796;81;20594;-76
2022/11/03 07:01:07;;;;;;;33.55;20.68;;;;;;;8.49;73.99;100369.51;1722458;80;21078;-75
2022/11/03 07:03:34;;;;;;;30.10;19.95;;;;;;;8.53;73.95;100358.67;1738253;79;21824;-76
2022/11/03 07:06:13;;;;;;;30.10;19.67;;;;;;;8.56;73.92;100353.17;1761101;79;21003;-75
2022/11/03 07:08:48;;;;;;;32.08;20.77;;;;;;;8.57;73.87;100352.70;1736091;80;21015;-75
2022/11/03 07:11:20;;;;;;;28.47;19.80;;;;;;;8.58;73.96;100355.22;1726724;81;21013;-74
2022/11/03 07:13:52;;;;;;;32.70;20.40;;;;;;;8.63;73.99;100355.37;1740324;80;21024;-76
2022/11/03 07:16:40;;;;;;;27.95;19.98;;;;;;;8.67;74.03;100366.05;1733277;81;21850;-76
2022/11/03 07:19:19;;;;;;;34.08;20.43;;;;;;;8.68;73.95;100362.46;1728410;80;21001;-75
2022/11/03 07:22:04;;;;;;;28.83;19.82;;;;;;;8.51;74.26;100360.58;1734269;81;21563;-74
2022/11/03 07:24:36;;;;;;;35.45;21.07;;;;;;;8.64;74.06;100358.38;1737518;80;21470;-72
2022/11/03 07:27:36;;;;;;;31.93;19.83;;;;;;;8.67;74.07;100362.94;1730442;80;21113;-73
2022/11/03 07:30:20;;;;;;;42.88;21.87;;;;;;;8.73;74.08;100365.63;1730765;80;22481;-73
2022/11/03 07:32:51;;;;;;;28.98;20.80;;;;;;;8.75;73.98;100360.59;1735171;81;21048;-71
2022/11/03 07:35:33;;;;;;;31.00;21.17;;;;;;;8.74;73.96;100353.66;1758571;79;21451;-74
2022/11/03 07:38:05;;;;;;;34.25;22.22;;;;;;;8.73;73.97;100351.14;1717892;81;21028;-74
2022/11/03 07:40:33;;;;;;;41.53;23.57;;;;;;;8.69;73.97;100346.58;1755497;79;21520;-73
2022/11/03 07:43:09;;;;;;;33.63;23.50;;;;;;;8.69;74.08;100344.42;1759183;79;22575;-70
2022/11/03 07:45:43;;;;;;;39.10;22.62;;;;;;;8.71;74.20;100341.20;1715159;81;21548;-74
2022/11/03 07:48:21;;;;;;;;;;;;;;;8.74;74.26;100333.06;1747498;80;20965;-76
2022/11/03 07:50:51;;;;;;;33.38;21.95;;;;;;;8.80;74.35;100331.31;1762034;79;20262;-70
2022/11/03 07:53:22;;;;;;;31.95;21.00;;;;;;;8.84;74.41;100330.12;1755193;79;21000;-73
2022/11/03 07:55:52;;;;;;;34.63;23.52;;;;;;;8.87;74.44;100334.69;1765295;80;21768;-74
2022/11/03 07:58:39;;;;;;;37.00;23.35;;;;;;;8.89;74.50;100328.02;1737578;80;21399;-73
2022/11/03 08:01:31;;;;;;;39.20;23.62;;;;;;;8.91;74.62;100330.53;1730627;80;21047;-72
2022/11/03 08:04:03;;;;;;;35.95;23.90;;;;;;;8.94;74.65;100327.19;1717456;81;21556;-73
2022/11/03 08:06:33;;;;;;;41.50;24.27;;;;;;;8.95;74.67;100326.23;1731483;80;21060;-72
2022/11/03 08:09:00;;;;;;;35.17;23.60;;;;;;;8.96;74.80;100322.64;1742643;80;22053;-73
2022/11/03 08:11:28;;;;;;;34.10;21.85;;;;;;;8.97;74.93;100325.63;1743548;80;21095;-73
2022/11/03 08:13:55;;;;;;;36.60;22.55;;;;;;;8.99;75.10;100323.75;1735807;80;21035;-73
2022/11/03 08:16:24;;;;;;;32.78;22.98;;;;;;;8.99;75.21;100328.18;1732425;80;21074;-75
2022/11/03 08:18:50;;;;;;;33.23;21.80;;;;;;;8.96;75.41;100324.43;1736473;80;21117;-74
2022/11/03 08:21:19;;;;;;;33.53;22.32;;;;;;;8.93;75.60;100325.98;1738892;80;22475;-74
2022/11/03 08:23:46;;;;;;;36.00;23.30;;;;;;;8.89;75.81;100320.95;1732009;80;21050;-74
2022/11/03 08:26:13;;;;;;;38.92;23.45;;;;;;;8.89;76.07;100324.06;1741030;80;21023;-75
2022/11/03 08:28:41;;;;;;;40.55;23.07;;;;;;;8.88;76.28;100325.02;1735268;81;21045;-69
2022/11/03 08:31:10;;;;;;;32.38;22.58;;;;;;;8.85;76.46;100319.95;1712685;81;21422;-70
2022/11/03 08:33:37;;;;;;;146.43;32.00;;;;;;;8.81;76.68;100320.66;1738740;80;21796;-75
2022/11/03 08:36:04;;;;;;;34.80;25.40;;;;;;;8.80;76.88;100320.78;1725577;80;21052;-71
2022/11/03 08:38:31;;;;;;;92.85;29.63;;;;;;;8.77;77.11;100321.82;1741723;80;21044;-74
2022/11/03 08:40:57;;;;;;;49.85;26.02;;;;;;;8.77;77.25;100323.62;1714366;82;21106;-74
2022/11/03 08:43:26;;;;;;;36.95;26.27;;;;;;;8.76;77.45;100324.57;1713419;82;21091;-74
2022/11/03 08:45:54;;;;;;;36.48;24.50;;;;;;;8.76;77.63;100327.20;1703274;82;21938;-72
2022/11/03 08:48:22;;;;;;;35.60;24.98;;;;;;;8.74;77.82;100318.11;1699323;82;21486;-74
2022/11/03 08:50:52;;;;;;;31.82;23.45;;;;;;;8.76;78.00;100321.94;1703559;82;21013;-73
2022/11/03 08:53:25;;;;;;;48.95;25.02;;;;;;;8.75;78.14;100319.78;1695676;83;22253;-72
2022/11/03 08:55:54;;;;;;;31.82;22.25;;;;;;;8.72;78.26;100316.54;1691980;82;21064;-72
2022/11/03 08:58:25;;;;;;;31.10;21.95;;;;;;;8.72;78.47;100313.91;1678647;82;21880;-72
2022/11/03 09:00:52;;;;;;;34.38;24.32;;;;;;;8.69;78.61;100312.34;1700989;82;21032;-73
2022/11/03 09:03:20;;;;;;;33.18;23.52;;;;;;;8.68;78.79;100311.11;1704070;82;21079;-73
2022/11/03 09:05:47;;;;;;;32.08;22.85;;;;;;;8.67;78.96;100304.17;1703895;82;21038;-74
2022/11/03 09:08:13;;;;;;;31.55;22.32;;;;;;;8.67;79.14;100296.27;1704169;83;20992;-74
2022/11/03 09:10:40;;;;;;;35.55;24.05;;;;;;;8.68;79.30;100294.84;1703056;82;21844;-73
2022/11/03 09:13:06;;;;;;;30.65;22.30;;;;;;;8.69;79.43;100292.59;1696567;83;20950;-74
2022/11/03 09:15:33;;;;;;;34.48;22.58;;;;;;;8.70;79.65;100285.06;1709428;83;21039;-73
2022/11/03 09:18:00;;;;;;;34.03;22.82;;;;;;;8.71;79.76;100289.84;1703705;83;21605;-73
2022/11/03 09:20:27;;;;;;;34.13;21.68;;;;;;;8.70;79.86;100293.44;1710469;81;22170;-73
2022/11/03 09:22:54;;;;;;;34.13;23.02;;;;;;;8.69;80.00;100290.45;1706297;82;22248;-68
2022/11/03 09:25:21;;;;;;;34.60;24.12;;;;;;;8.68;80.15;100291.37;1708140;83;21070;-73
2022/11/03 09:27:48;;;;;;;33.95;22.73;;;;;;;8.69;80.28;100289.97;1706939;82;21047;-74
2022/11/03 09:30:16;;;;;;;34.53;24.85;;;;;;;8.71;80.45;100288.05;1701209;83;20993;-76
2022/11/03 09:32:45;;;;;;;35.52;23.98;;;;;;;8.73;80.58;100280.04;1699122;82;21164;-74
2022/11/03 09:35:13;;;;;;;31.50;22.98;;;;;;;8.74;80.66;100278.60;1704155;82;21932;-75
2022/11/03 09:37:40;;;;;;;34.25;24.60;;;;;;;8.78;80.79;100280.08;1707894;83;21522;-75
2022/11/03 09:40:08;;;;;;;31.85;22.77;;;;;;;8.80;80.91;100271.58;1700986;82;21483;-76
2022/11/03 09:42:37;;;;;;;32.40;23.22;;;;;;;8.83;81.01;100270.03;1710014;80;21017;-75
2022/11/03 09:45:06;;;;;;;31.93;22.90;;;;;;;8.84;81.05;100265.59;1749047;80;21021;-74
2022/11/03 09:47:37;;;;;;;29.48;21.85;;;;;;;8.85;81.16;100266.80;1768346;81;21836;-75
2022/11/03 09:50:08;;;;;;;27.05;20.62;;;;;;;8.88;81.24;100265.75;1751322;81;21036;-73
2022/11/03 09:52:34;;;;;;;28.47;20.08;;;;;;;8.89;81.36;100264.32;1760007;80;21043;-77
2022/11/03 09:55:02;;;;;;;29.55;20.52;;;;;;;8.88;81.41;100263.96;1748761;80;21060;-75
2022/11/03 09:57:28;;;;;;;28.27;21.05;;;;;;;8.88;81.47;100257.85;1749942;80;21027;-71
2022/11/03 10:00:03;;;;;;;30.55;21.52;;;;;;;8.89;81.58;100257.73;1716250;80;21741;-75
2022/11/03 10:02:34;;;;;;;24.52;19.75;;;;;;;8.91;81.67;100254.98;1746956;80;21603;-73
2022/11/03 10:05:01;;;;;;;25.60;19.75;;;;;;;8.94;81.76;100252.59;1735892;80;21062;-72
2022/11/03 10:07:28;;;;;;;30.88;20.10;;;;;;;8.94;81.81;100252.11;1755921;81;21029;-72
2022/11/03 10:09:56;;;;;;;29.27;21.75;;;;;;;8.96;81.84;100247.56;1753226;80;21036;-71
2022/11/03 10:12:22;;;;;;;29.72;21.45;;;;;;;9.00;81.97;100253.45;1746487;80;21910;-73
2022/11/03 10:14:50;;;;;;;29.48;21.10;;;;;;;8.99;82.00;100234.18;1743143;80;21038;-73
2022/11/03 10:17:19;;;;;;;26.15;20.17;;;;;;;9.03;82.12;100235.61;1763410;81;21067;-73
2022/11/03 10:19:50;;;;;;;30.52;22.82;;;;;;;9.06;82.18;100228.79;1740658;80;21062;-74
2022/11/03 10:22:19;;;;;;;29.55;21.62;;;;;;;9.09;82.28;100227.74;1720436;82;21114;-73
2022/11/03 10:24:45;;;;;;;29.45;22.37;;;;;;;9.12;82.35;100224.39;1744898;81;22399;-74
2022/11/03 10:27:24;;;;;;;28.65;21.12;;;;;;;9.16;82.45;100227.14;1735062;81;21000;-73
2022/11/03 10:30:11;;;;;;;27.75;20.75;;;;;;;9.22;82.54;100225.84;1738453;80;20988;-73
2022/11/03 10:32:40;;;;;;;30.57;21.62;;;;;;;9.27;82.61;100226.35;1747286;81;21502;-73
2022/11/03 10:35:33;;;;;;;25.45;19.30;;;;;;;9.31;82.72;100218.56;1727798;81;21076;-74
2022/11/03 10:38:31;;;;;;;29.77;20.62;;;;;;;9.35;82.77;100213.87;1733418;81;22483;-75
2022/11/03 10:41:20;;;;;;;27.25;20.92;;;;;;;9.38;82.83;100216.30;1731293;81;21539;-74
2022/11/03 10:44:05;;;;;;;23.42;18.23;;;;;;;9.43;82.94;100212.33;1744244;81;21474;-72
2022/11/03 10:46:33;;;;;;;22.10;18.20;;;;;;;9.45;82.98;100203.81;1744619;81;21074;-72
2022/11/03 10:49:10;;;;;;;23.50;18.75;;;;;;;9.48;83.03;100197.98;1761133;80;21032;-73
2022/11/03 10:51:38;;;;;;;24.10;18.77;;;;;;;9.48;83.08;100186.95;1731218;82;21840;-74
2022/11/03 10:54:05;;;;;;;24.82;19.60;;;;;;;9.51;83.11;100188.02;1730904;82;20971;-73
2022/11/03 10:56:32;;;;;;;19.95;16.45;;;;;;;9.53;83.14;100186.58;1725445;81;21089;-72
2022/11/03 10:58:59;;;;;;;24.95;19.50;;;;;;;9.54;83.19;100183.81;1714124;82;21028;-71
2022/11/03 11:01:25;;;;;;;24.10;19.07;;;;;;;9.55;83.20;100187.29;1713597;82;21054;-77
2022/11/03 11:03:52;;;;;;;25.50;19.20;;;;;;;9.55;83.26;100184.17;1741551;81;22248;-71
2022/11/03 11:06:25;;;;;;;24.87;19.42;;;;;;;9.57;83.28;100180.13;1746697;82;21048;-73
2022/11/03 11:08:56;;;;;;;21.07;17.17;;;;;;;9.57;83.32;100178.80;1746893;82;21035;-71
2022/11/03 11:11:23;;;;;;;22.22;18.05;;;;;;;9.58;83.34;100169.45;1742273;82;21072;-72
2022/11/03 11:14:33;;;;;;;19.40;15.88;;;;;;;9.59;83.35;100168.48;1746792;82;21067;-73
2022/11/03 11:16:59;;;;;;;23.38;18.65;;;;;;;9.61;83.39;100168.36;1743389;82;21973;-73
2022/11/03 11:19:29;;;;;;;24.72;18.82;;;;;;;9.63;83.42;100165.13;1725335;81;20917;-76
2022/11/03 11:21:59;;;;;;;23.02;18.02;;;;;;;9.65;83.48;100160.55;1748304;81;21042;-72
2022/11/03 11:24:47;;;;;;;20.17;16.05;;;;;;;9.69;83.51;100163.33;1746600;81;21121;-73
2022/11/03 11:27:47;;;;;;;20.37;16.07;;;;;;;9.69;83.52;100162.84;1721786;81;21064;-72
2022/11/03 11:30:31;;;;;;;23.18;18.60;;;;;;;9.70;83.52;100159.25;1745625;80;22532;-72
2022/11/03 11:33:13;;;;;;;27.02;18.92;;;;;;;9.71;83.55;100159.60;1728116;82;20996;-73
2022/11/03 11:35:49;;;;;;;32.73;22.65;;;;;;;9.69;83.62;100150.98;1743102;81;21016;-72
2022/11/03 11:38:56;;;;;;;31.07;21.33;;;;;;;9.71;83.67;100149.53;1745871;82;21027;-72
2022/11/03 11:42:07;;;;;;;34.95;20.40;;;;;;;9.71;83.76;100143.78;1737544;82;21079;-73
2022/11/03 11:44:45;;;;;;;23.77;17.48;;;;;;;9.74;83.86;100137.41;1727364;80;21878;-75
2022/11/03 11:47:32;;;;;;;18.25;13.48;;;;;;;9.79;84.00;100139.70;1721887;82;20953;-80
2022/11/03 11:50:08;;;;;;;16.62;12.53;;;;;;;9.83;84.22;100142.44;1716726;83;21489;-71
2022/11/03 11:52:49;;;;;;;15.98;12.47;;;;;;;9.90;84.61;100135.72;1721450;82;21059;-74
2022/11/03 11:55:37;;;;;;;16.35;11.00;;;;;;;9.95;84.71;100129.13;1706870;83;21518;-73
2022/11/03 11:58:05;;;;;;;14.55;10.68;;;;;;;10.02;84.92;100127.64;1695747;83;21884;-73